createdAt,value
2022-08-26T00:00:47.833Z,14.63
2022-08-26T00:03:16.749Z,13.45
2022-08-26T00:05:45.267Z,14.75
2022-08-26T00:08:15.075Z,14.63
2022-08-26T00:10:44.409Z,15.30
2022-08-26T00:13:15.615Z,13.68
2022-08-26T00:15:47.259Z,13.52
2022-08-26T00:18:22.351Z,16.15
2022-08-26T00:20:50.550Z,13.73
2022-08-26T00:23:18.542Z,14.80
2022-08-26T00:25:47.643Z,15.15
2022-08-26T00:28:15.915Z,13.95
2022-08-26T00:30:51.607Z,13.90
2022-08-26T00:33:20.547Z,14.32
2022-08-26T00:35:48.444Z,13.98
2022-08-26T00:38:16.770Z,15.77
2022-08-26T00:40:47.546Z,15.85
2022-08-26T00:43:16.132Z,13.65
2022-08-26T00:46:02.351Z,17.25
2022-08-26T00:48:32.550Z,15.68
2022-08-26T00:51:12.047Z,13.98
2022-08-26T00:53:46.313Z,15.30
2022-08-26T00:56:36.632Z,14.88
2022-08-26T00:59:08.311Z,14.98
2022-08-26T01:01:38.280Z,15.70
2022-08-26T01:04:06.142Z,15.77
2022-08-26T01:06:33.325Z,13.35
2022-08-26T01:09:00.632Z,15.63
2022-08-26T01:11:28.625Z,15.43
2022-08-26T01:14:00.133Z,14.38
2022-08-26T01:16:27.378Z,14.68
2022-08-26T01:19:02.409Z,15.05
2022-08-26T01:21:47.060Z,17.35
2022-08-26T01:24:15.728Z,14.23
2022-08-26T01:26:44.901Z,15.73
2022-08-26T01:29:18.088Z,15.43
2022-08-26T01:31:50.637Z,15.40
2022-08-26T01:34:28.041Z,15.98
2022-08-26T01:37:03.667Z,17.08
2022-08-26T01:39:34.909Z,15.75
2022-08-26T01:42:03.917Z,16.67
2022-08-26T01:44:39.363Z,15.10
2022-08-26T01:47:09.766Z,15.10
2022-08-26T01:49:37.886Z,16.67
2022-08-26T01:52:07.857Z,16.13
2022-08-26T01:54:38.060Z,16.02
2022-08-26T01:57:05.719Z,15.27
2022-08-26T01:59:33.354Z,15.02
2022-08-26T02:02:08.139Z,15.80
2022-08-26T02:05:32.355Z,15.73
2022-08-26T02:08:50.547Z,15.07
2022-08-26T02:11:18.763Z,14.68
2022-08-26T02:13:54.726Z,15.25
2022-08-26T02:16:27.373Z,14.13
2022-08-26T02:19:16.855Z,15.00
2022-08-26T02:22:19.166Z,15.68
2022-08-26T02:25:37.526Z,16.38
2022-08-26T02:31:16.880Z,17.77
2022-08-26T02:38:03.199Z,14.60
2022-08-26T03:01:38.206Z,15.63
2022-08-26T03:48:31.520Z,18.30
2022-08-26T03:50:59.109Z,18.27
2022-08-26T03:53:27.049Z,18.20
2022-08-26T03:55:55.418Z,19.40
2022-08-26T03:58:24.719Z,17.42
2022-08-26T04:00:55.923Z,18.35
2022-08-26T04:03:43.336Z,19.77
2022-08-26T04:06:11.035Z,17.98
2022-08-26T04:08:38.819Z,18.55
2022-08-26T04:11:09.224Z,19.00
2022-08-26T04:16:05.954Z,18.23
2022-08-26T04:18:37.241Z,18.33
2022-08-26T04:21:08.556Z,18.60
2022-08-26T04:23:47.249Z,17.90
2022-08-26T04:26:18.593Z,18.77
2022-08-26T04:28:48.478Z,17.25
2022-08-26T04:31:17.757Z,19.35
2022-08-26T04:33:53.657Z,18.02
2022-08-26T04:36:21.737Z,18.05
2022-08-26T04:38:52.209Z,18.45
2022-08-26T04:41:21.467Z,17.42
2022-08-26T04:43:49.134Z,17.98
2022-08-26T04:46:20.059Z,18.67
2022-08-26T04:48:52.112Z,18.67
2022-08-26T04:51:30.356Z,18.42
2022-08-26T04:53:59.366Z,17.33
2022-08-26T04:56:33.238Z,17.85
2022-08-26T04:59:03.168Z,18.85
2022-08-26T05:01:34.309Z,19.33
2022-08-26T05:04:08.134Z,18.38
2022-08-26T05:06:37.212Z,17.75
2022-08-26T05:09:05.162Z,17.15
2022-08-26T05:11:37.626Z,16.95
2022-08-26T05:14:06.257Z,16.92
2022-08-26T05:16:34.079Z,17.17
2022-08-26T05:19:01.740Z,16.35
2022-08-26T05:21:29.887Z,15.73
2022-08-26T05:24:00.658Z,17.02
2022-08-26T05:26:30.290Z,15.73
2022-08-26T05:29:04.669Z,15.25
2022-08-26T05:31:34.801Z,16.48
2022-08-26T05:34:05.033Z,15.35
2022-08-26T05:36:34.975Z,14.82
2022-08-26T05:39:05.635Z,15.25
2022-08-26T05:41:38.300Z,14.95
2022-08-26T05:44:19.148Z,14.05
2022-08-26T05:46:47.388Z,14.50
2022-08-26T05:49:16.547Z,14.20
2022-08-26T05:51:47.672Z,14.52
2022-08-26T05:54:21.367Z,13.60
2022-08-26T05:56:53.953Z,12.75
2022-08-26T05:59:28.211Z,12.50
2022-08-26T06:01:57.646Z,13.43
2022-08-26T06:04:28.405Z,12.02
2022-08-26T06:07:06.481Z,11.40
2022-08-26T06:09:38.603Z,11.70
2022-08-26T06:12:08.233Z,11.13
2022-08-26T06:14:36.257Z,11.00
2022-08-26T06:17:04.528Z,10.48
2022-08-26T06:19:34.595Z,11.57
2022-08-26T06:22:23.287Z,11.77
2022-08-26T06:25:13.473Z,11.23
2022-08-26T06:27:43.777Z,13.55
2022-08-26T06:30:14.790Z,13.23
2022-08-26T06:32:48.477Z,14.25
2022-08-26T06:35:28.528Z,14.70
2022-08-26T06:38:06.754Z,13.23
2022-08-26T06:40:48.799Z,10.93
2022-08-26T06:43:20.482Z,9.45
2022-08-26T06:46:00.708Z,9.57
2022-08-26T06:48:28.403Z,9.57
2022-08-26T06:51:25.691Z,9.38
2022-08-26T06:53:55.519Z,9.95
2022-08-26T06:56:25.866Z,10.02
2022-08-26T06:58:53.595Z,9.80
2022-08-26T07:01:27.213Z,10.73
2022-08-26T07:03:59.531Z,10.98
2022-08-26T07:06:40.761Z,10.93
2022-08-26T07:09:10.135Z,10.13
2022-08-26T07:11:39.344Z,8.85
2022-08-26T07:14:09.456Z,8.02
2022-08-26T07:16:39.041Z,7.38
2022-08-26T07:19:11.214Z,7.53
2022-08-26T07:22:09.079Z,7.15
2022-08-26T07:24:45.342Z,7.10
2022-08-26T07:27:15.601Z,6.68
2022-08-26T07:29:43.861Z,6.72
2022-08-26T07:32:13.523Z,7.00
2022-08-26T07:34:41.922Z,6.70
2022-08-26T07:37:14.049Z,6.90
2022-08-26T07:39:50.349Z,7.57
2022-08-26T07:42:20.083Z,7.65
2022-08-26T07:44:56.860Z,7.15
2022-08-26T07:47:26.213Z,7.32
2022-08-26T07:49:56.219Z,6.82
2022-08-26T07:52:31.466Z,7.25
2022-08-26T07:55:04.991Z,7.32
2022-08-26T07:57:37.199Z,6.57
2022-08-26T08:02:45.451Z,7.00
2022-08-26T08:05:17.063Z,7.15
2022-08-26T08:10:25.173Z,6.10
2022-08-26T08:12:56.743Z,7.43
2022-08-26T08:15:35.154Z,7.20
2022-08-26T08:18:15.856Z,7.80
2022-08-26T08:20:54.679Z,7.47
2022-08-26T08:23:32.989Z,8.80
2022-08-26T08:26:13.673Z,7.00
2022-08-26T08:29:00.058Z,7.93
2022-08-26T08:34:21.461Z,7.80
2022-08-26T08:36:53.340Z,7.28
2022-08-26T08:39:21.956Z,7.97
2022-08-26T08:42:16.355Z,7.43
2022-08-26T08:44:52.024Z,7.50
2022-08-26T08:47:45.218Z,7.75
2022-08-26T08:50:38.876Z,7.15
2022-08-26T08:53:17.824Z,6.95
2022-08-26T08:56:31.169Z,6.68
2022-08-26T08:59:55.326Z,7.28
2022-08-26T09:02:41.164Z,6.13
2022-08-26T09:05:21.494Z,6.82
2022-08-26T09:08:20.094Z,6.70
2022-08-26T09:11:27.657Z,6.95
2022-08-26T09:14:37.334Z,6.38
2022-08-26T09:18:02.140Z,6.35
2022-08-26T09:20:58.992Z,6.70
2022-08-26T09:23:57.924Z,7.05
2022-08-26T09:26:50.508Z,6.57
2022-08-26T09:29:41.923Z,6.85
2022-08-26T09:32:28.233Z,6.68
2022-08-26T09:35:03.669Z,7.10
2022-08-26T09:37:55.431Z,7.15
2022-08-26T09:40:36.781Z,7.60
2022-08-26T09:43:23.198Z,7.35
2022-08-26T09:45:59.416Z,7.88
2022-08-26T09:51:35.737Z,7.93
2022-08-26T09:56:40.337Z,7.85
2022-08-26T09:59:15.117Z,7.20
2022-08-26T10:01:54.860Z,6.53
2022-08-26T10:04:34.291Z,7.40
2022-08-26T10:07:11.293Z,6.75
2022-08-26T10:09:54.104Z,6.70
2022-08-26T10:12:25.743Z,6.97
2022-08-26T10:15:04.113Z,8.00
2022-08-26T10:17:38.294Z,6.68
2022-08-26T10:20:26.294Z,7.07
2022-08-26T10:23:03.117Z,7.13
2022-08-26T10:25:59.363Z,6.57
2022-08-26T10:28:44.389Z,6.55
2022-08-26T10:31:40.345Z,7.28
2022-08-26T10:34:12.311Z,6.47
2022-08-26T10:37:13.773Z,6.97
2022-08-26T10:40:07.568Z,7.10
2022-08-26T10:45:30.484Z,7.28
2022-08-26T10:48:08.757Z,6.82
2022-08-26T10:50:47.441Z,7.10
2022-08-26T10:53:32.737Z,7.80
2022-08-26T10:56:42.219Z,7.53
2022-08-26T10:59:34.174Z,6.82
2022-08-26T11:02:15.173Z,5.78
2022-08-26T11:04:49.132Z,6.43
2022-08-26T11:07:33.579Z,6.80
2022-08-26T11:10:08.719Z,5.82
2022-08-26T11:12:39.010Z,5.82
2022-08-26T11:15:14.505Z,6.70
2022-08-26T11:17:46.124Z,6.07
2022-08-26T11:20:35.188Z,6.00
2022-08-26T11:23:26.522Z,6.68
2022-08-26T11:25:57.514Z,6.50
2022-08-26T11:28:48.974Z,6.63
2022-08-26T11:31:20.992Z,6.90
2022-08-26T11:33:57.305Z,6.95
2022-08-26T11:36:46.326Z,6.70
2022-08-26T11:39:24.414Z,6.70
2022-08-26T11:41:55.811Z,6.75
2022-08-26T11:44:41.481Z,6.30
2022-08-26T11:47:27.041Z,4.85
2022-08-26T11:50:19.939Z,5.80
2022-08-26T11:52:57.342Z,6.53
2022-08-26T11:55:26.789Z,6.47
2022-08-26T11:58:01.131Z,5.63
2022-08-26T12:00:36.291Z,5.82
2022-08-26T12:03:17.420Z,6.05
2022-08-26T12:05:49.606Z,5.38
2022-08-26T12:08:24.652Z,6.28
2022-08-26T12:11:25.701Z,5.75
2022-08-26T12:14:05.850Z,5.68
2022-08-26T12:16:40.161Z,5.40
2022-08-26T12:19:27.482Z,5.40
2022-08-26T12:22:17.451Z,5.95
2022-08-26T12:24:52.788Z,5.90
2022-08-26T12:27:32.022Z,6.57
2022-08-26T12:30:20.439Z,6.75
2022-08-26T12:32:57.539Z,6.45
2022-08-26T12:35:30.848Z,6.55
2022-08-26T12:37:59.972Z,6.80
2022-08-26T12:40:50.404Z,6.88
2022-08-26T12:43:42.642Z,6.90
2022-08-26T12:46:29.870Z,6.20
2022-08-26T12:49:01.489Z,5.93
2022-08-26T12:51:33.625Z,5.95
2022-08-26T12:54:08.265Z,6.38
2022-08-26T12:56:41.840Z,6.47
2022-08-26T12:59:26.720Z,6.28
2022-08-26T13:01:56.878Z,6.47
2022-08-26T13:04:41.736Z,6.15
2022-08-26T13:07:25.227Z,6.00
2022-08-26T13:09:59.910Z,5.50
2022-08-26T13:12:43.812Z,5.95
2022-08-26T13:15:11.276Z,6.05
2022-08-26T13:17:39.518Z,5.82
2022-08-26T13:20:38.349Z,6.25
2022-08-26T13:22:59.932Z,6.82
2022-08-26T13:25:27.650Z,5.93
2022-08-26T13:27:57.304Z,6.97
2022-08-26T13:30:28.093Z,6.00
2022-08-26T13:33:02.303Z,5.90
2022-08-26T13:35:34.122Z,6.78
2022-08-26T13:38:02.206Z,8.23
2022-08-26T13:40:34.297Z,6.13
2022-08-26T13:43:04.160Z,5.90
2022-08-26T13:45:33.040Z,6.28
2022-08-26T13:48:06.349Z,6.10
2022-08-26T13:50:35.707Z,6.22
2022-08-26T13:53:03.118Z,6.10
2022-08-26T13:55:30.657Z,6.47
2022-08-26T13:57:58.674Z,6.28
2022-08-26T14:02:56.858Z,6.57
2022-08-26T14:05:24.251Z,6.20
2022-08-26T14:07:52.582Z,6.47
2022-08-26T14:10:20.265Z,5.90
2022-08-26T14:12:49.615Z,7.30
2022-08-26T14:15:18.879Z,6.38
2022-08-26T14:17:48.952Z,7.35
2022-08-26T14:20:21.441Z,6.78
2022-08-26T14:23:12.558Z,7.57
2022-08-26T14:25:36.342Z,6.22
2022-08-26T14:28:03.776Z,6.40
2022-08-26T14:30:32.354Z,6.85
2022-08-26T14:32:59.851Z,7.07
2022-08-26T14:35:29.793Z,6.93
2022-08-26T14:37:57.892Z,7.72
2022-08-26T14:40:29.705Z,7.55
2022-08-26T14:42:58.896Z,7.75
2022-08-26T14:45:28.563Z,8.10
2022-08-26T14:47:57.159Z,7.57
2022-08-26T14:50:26.927Z,7.65
2022-08-26T14:53:12.650Z,6.63
2022-08-26T14:55:42.229Z,6.68
2022-08-26T14:58:10.271Z,6.18
2022-08-26T15:00:38.539Z,6.55
2022-08-26T15:03:06.474Z,6.68
2022-08-26T15:05:34.448Z,6.22
2022-08-26T15:08:04.791Z,6.35
2022-08-26T15:10:34.399Z,7.15
2022-08-26T15:13:02.321Z,7.25
2022-08-26T15:15:29.984Z,6.47
2022-08-26T15:17:57.579Z,6.60
2022-08-26T15:20:25.077Z,6.68
2022-08-26T15:22:52.386Z,7.25
2022-08-26T15:25:20.957Z,6.80
2022-08-26T15:27:48.844Z,6.18
2022-08-26T15:30:16.902Z,7.20
2022-08-26T15:32:44.423Z,6.95
2022-08-26T15:35:11.936Z,7.10
2022-08-26T15:37:39.792Z,7.55
2022-08-26T15:40:09.553Z,6.63
2022-08-26T15:42:38.195Z,7.82
2022-08-26T15:45:05.700Z,6.97
2022-08-26T15:47:35.477Z,7.40
2022-08-26T15:50:25.508Z,7.20
2022-08-26T15:52:52.916Z,7.30
2022-08-26T15:55:23.637Z,7.43
2022-08-26T15:57:50.979Z,7.35
2022-08-26T16:00:18.652Z,6.85
2022-08-26T16:02:46.060Z,7.50
2022-08-26T16:05:13.632Z,8.10
2022-08-26T16:07:41.025Z,7.20
2022-08-26T16:10:08.848Z,8.07
2022-08-26T16:12:37.460Z,8.57
2022-08-26T16:15:05.489Z,7.97
2022-08-26T16:17:32.905Z,7.55
2022-08-26T16:20:00.894Z,8.20
2022-08-26T16:22:28.582Z,7.70
2022-08-26T16:24:59.220Z,7.65
2022-08-26T16:29:54.787Z,8.45
2022-08-26T16:32:22.487Z,8.43
2022-08-26T16:34:56.235Z,7.38
2022-08-26T16:37:24.302Z,8.98
2022-08-26T16:39:51.838Z,7.03
2022-08-26T16:42:19.703Z,7.43
2022-08-26T16:44:47.614Z,8.57
2022-08-26T16:47:16.689Z,7.85
2022-08-26T16:49:46.786Z,8.30
2022-08-26T16:52:18.040Z,8.20
2022-08-26T16:54:45.926Z,8.40
2022-08-26T16:57:13.843Z,9.52
2022-08-26T16:59:41.746Z,8.55
2022-08-26T17:02:12.069Z,8.40
2022-08-26T17:04:40.128Z,7.85
2022-08-26T17:07:07.869Z,9.02
2022-08-26T17:09:35.322Z,8.85
2022-08-26T17:12:03.125Z,8.43
2022-08-26T17:14:30.395Z,8.75
2022-08-26T17:16:57.902Z,9.00
2022-08-26T17:19:25.636Z,8.88
2022-08-26T17:21:53.341Z,8.82
2022-08-26T17:24:21.061Z,9.40
2022-08-26T17:26:53.457Z,9.55
2022-08-26T17:29:23.953Z,9.75
2022-08-26T17:31:51.462Z,9.52
2022-08-26T17:34:19.202Z,10.68
2022-08-26T17:36:46.412Z,9.82
2022-08-26T17:39:13.617Z,10.27
2022-08-26T17:41:41.311Z,9.57
2022-08-26T17:44:08.676Z,10.63
2022-08-26T17:46:38.872Z,10.35
2022-08-26T17:49:06.716Z,10.13
2022-08-26T17:51:34.278Z,10.35
2022-08-26T17:54:01.931Z,11.18
2022-08-26T17:56:29.837Z,10.48
2022-08-26T17:59:02.510Z,9.45
2022-08-26T18:01:31.892Z,11.05
2022-08-26T18:04:00.619Z,11.07
2022-08-26T18:06:32.591Z,10.60
2022-08-26T18:09:01.060Z,10.82
2022-08-26T18:11:29.551Z,10.80
2022-08-26T18:13:56.912Z,11.25
2022-08-26T18:16:24.639Z,10.50
2022-08-26T18:18:53.610Z,10.95
2022-08-26T18:21:24.238Z,10.43
2022-08-26T18:23:52.209Z,16.25
2022-08-26T18:26:27.459Z,13.80
2022-08-26T18:28:57.999Z,10.85
2022-08-26T18:31:26.565Z,10.95
2022-08-26T18:33:54.337Z,11.85
2022-08-26T18:36:30.895Z,11.68
2022-08-26T18:38:59.822Z,11.00
2022-08-26T18:41:30.888Z,10.75
2022-08-26T18:44:18.828Z,11.32
2022-08-26T18:46:47.485Z,10.98
2022-08-26T18:49:53.443Z,12.98
2022-08-26T18:52:41.374Z,12.77
2022-08-26T18:55:08.647Z,12.02
2022-08-26T18:57:37.392Z,12.65
2022-08-26T19:00:09.436Z,13.35
2022-08-26T19:02:39.788Z,12.90
2022-08-26T19:05:10.460Z,13.02
2022-08-26T19:07:39.710Z,14.60
2022-08-26T19:10:07.799Z,13.63
2022-08-26T19:12:37.588Z,13.75
2022-08-26T19:15:07.849Z,14.60
2022-08-26T19:17:35.362Z,14.05
2022-08-26T19:20:08.547Z,13.77
2022-08-26T19:22:54.346Z,13.38
2022-08-26T19:25:21.846Z,12.90
2022-08-26T19:27:49.214Z,12.25
2022-08-26T19:30:24.660Z,13.18
2022-08-26T19:33:21.283Z,13.35
2022-08-26T19:36:06.324Z,12.32
2022-08-26T19:38:38.259Z,12.80
2022-08-26T19:41:23.009Z,13.07
2022-08-26T19:43:55.982Z,12.73
2022-08-26T19:49:08.505Z,12.63
2022-08-26T19:51:53.194Z,13.57
2022-08-26T20:16:26.338Z,14.48
2022-08-26T20:19:05.377Z,12.23
2022-08-26T20:21:49.024Z,13.20
2022-08-26T20:25:15.166Z,13.88
2022-08-26T20:27:45.356Z,13.77
2022-08-26T20:30:40.693Z,13.27
2022-08-26T20:33:46.347Z,13.45
2022-08-26T20:36:19.803Z,14.27
2022-08-26T20:39:06.590Z,14.20
2022-08-26T20:46:18.777Z,15.23
